createdAt,value
2023-03-22T00:00:01.540Z,99501.00
2023-03-22T00:02:30.430Z,99499.19
2023-03-22T00:04:57.220Z,99499.78
2023-03-22T00:07:24.004Z,99490.72
2023-03-22T00:09:51.031Z,99490.56
2023-03-22T00:12:18.726Z,99487.94
2023-03-22T00:14:45.637Z,99486.88
2023-03-22T00:17:12.386Z,99494.25
2023-03-22T00:19:42.108Z,99487.94
2023-03-22T00:22:08.859Z,99490.53
2023-03-22T00:24:35.580Z,99492.97
2023-03-22T00:27:02.306Z,99490.19
2023-03-22T00:29:29.636Z,99497.41
2023-03-22T00:31:56.417Z,99492.63
2023-03-22T00:34:23.364Z,99490.16
2023-03-22T00:36:51.829Z,99493.38
2023-03-22T00:39:18.529Z,99489.81
2023-03-22T00:41:45.345Z,99477.50
2023-03-22T00:44:12.221Z,99486.25
2023-03-22T00:46:39.066Z,99475.47
2023-03-22T00:49:06.050Z,99481.59
2023-03-22T00:51:32.828Z,99479.22
2023-03-22T00:53:59.602Z,99477.66
2023-03-22T00:56:28.731Z,99485.78
2023-03-22T00:58:55.747Z,99482.72
2023-03-22T01:01:22.538Z,99481.94
2023-03-22T01:03:50.753Z,99473.94
2023-03-22T01:06:18.098Z,99471.56
2023-03-22T01:08:44.850Z,99471.69
2023-03-22T01:11:11.606Z,99473.13
2023-03-22T01:13:38.618Z,99473.72
2023-03-22T01:16:06.725Z,99469.19
2023-03-22T01:18:33.951Z,99477.31
2023-03-22T01:21:00.685Z,99469.47
2023-03-22T01:23:27.946Z,99467.28
2023-03-22T01:25:54.677Z,99468.53
2023-03-22T01:28:21.461Z,99458.97
2023-03-22T01:30:48.187Z,99459.56
2023-03-22T01:33:15.351Z,99463.28
2023-03-22T01:35:42.108Z,99457.28
2023-03-22T01:38:08.803Z,99461.13
2023-03-22T01:40:35.657Z,99453.41
2023-03-22T01:43:02.400Z,99466.00
2023-03-22T01:45:35.707Z,99454.63
2023-03-22T01:48:07.357Z,99454.25
2023-03-22T01:50:34.663Z,99466.22
2023-03-22T01:53:04.997Z,99469.31
2023-03-22T01:55:33.288Z,99461.50
2023-03-22T01:58:00.913Z,99459.47
2023-03-22T02:00:27.866Z,99465.75
2023-03-22T02:02:54.602Z,99465.28
2023-03-22T02:05:22.397Z,99464.31
2023-03-22T02:07:49.926Z,99469.09
2023-03-22T02:10:20.015Z,99466.47
2023-03-22T02:13:04.616Z,99470.75
2023-03-22T02:15:40.942Z,99472.69
2023-03-22T02:18:11.463Z,99473.88
2023-03-22T02:21:06.477Z,99478.16
2023-03-22T02:24:04.279Z,99478.91
2023-03-22T02:26:47.078Z,99470.91
2023-03-22T02:29:26.406Z,99472.66
2023-03-22T02:31:55.929Z,99472.31
2023-03-22T02:34:31.277Z,99470.03
2023-03-22T02:37:12.854Z,99472.03
2023-03-22T02:40:00.008Z,99475.28
2023-03-22T02:42:55.298Z,99487.34
2023-03-22T02:45:35.468Z,99477.69
2023-03-22T02:48:22.302Z,99482.50
2023-03-22T02:50:55.181Z,99480.47
2023-03-22T02:53:25.337Z,99481.44
2023-03-22T02:56:04.218Z,99483.16
2023-03-22T02:58:45.821Z,99479.50
2023-03-22T03:01:21.672Z,99481.41
2023-03-22T03:03:50.129Z,99483.31
2023-03-22T03:06:19.701Z,99495.66
2023-03-22T03:08:50.767Z,99491.56
2023-03-22T03:11:18.032Z,99499.56
2023-03-22T03:13:48.049Z,99492.34
2023-03-22T03:16:17.514Z,99488.41
2023-03-22T03:18:50.461Z,99484.44
2023-03-22T03:21:24.980Z,99485.38
2023-03-22T03:24:03.465Z,99493.28
2023-03-22T03:26:41.940Z,99494.22
2023-03-22T03:29:16.338Z,99498.81
2023-03-22T03:31:43.180Z,99491.63
2023-03-22T03:34:24.139Z,99489.03
2023-03-22T03:37:01.754Z,99493.75
2023-03-22T03:39:31.150Z,99491.88
2023-03-22T03:41:58.552Z,99497.28
2023-03-22T03:44:25.466Z,99494.13
2023-03-22T03:46:52.987Z,99501.34
2023-03-22T03:49:20.669Z,99498.97
2023-03-22T03:51:52.751Z,99489.28
2023-03-22T03:54:20.342Z,99487.44
2023-03-22T03:56:48.172Z,99488.31
2023-03-22T03:59:18.847Z,99485.81
2023-03-22T04:01:50.400Z,99483.41
2023-03-22T04:04:28.695Z,99488.97
2023-03-22T04:06:57.312Z,99483.16
2023-03-22T04:09:29.431Z,99496.38
2023-03-22T04:11:57.161Z,99496.38
2023-03-22T04:14:24.666Z,99502.56
2023-03-22T04:16:51.962Z,99498.69
2023-03-22T04:19:19.359Z,99499.16
2023-03-22T04:21:46.447Z,99499.63
2023-03-22T04:24:13.796Z,99499.84
2023-03-22T04:26:41.266Z,99504.13
2023-03-22T04:29:08.162Z,99496.97
2023-03-22T04:31:39.125Z,99499.91
2023-03-22T04:34:06.090Z,99496.47
2023-03-22T04:36:36.496Z,99496.13
2023-03-22T04:39:07.600Z,99489.56
2023-03-22T04:41:34.698Z,99496.78
2023-03-22T04:44:04.416Z,99497.06
2023-03-22T04:46:32.965Z,99486.28
2023-03-22T04:49:00.062Z,99503.38
2023-03-22T04:51:27.993Z,99509.69
2023-03-22T04:53:54.740Z,99509.78
2023-03-22T04:56:21.859Z,99510.91
2023-03-22T04:58:48.612Z,99502.66
2023-03-22T05:01:17.439Z,99509.75
2023-03-22T05:03:47.836Z,99503.75
2023-03-22T05:06:15.307Z,99511.84
2023-03-22T05:08:42.326Z,99519.16
2023-03-22T05:11:12.480Z,99520.81
2023-03-22T05:13:39.695Z,99515.41
2023-03-22T05:16:07.503Z,99523.53
2023-03-22T05:18:34.378Z,99529.00
2023-03-22T05:21:03.809Z,99523.53
2023-03-22T05:23:30.605Z,99526.34
2023-03-22T05:25:58.315Z,99526.50
2023-03-22T05:28:27.210Z,99520.72
2023-03-22T05:30:56.663Z,99514.47
2023-03-22T05:33:23.899Z,99516.91
2023-03-22T05:35:51.215Z,99521.72
2023-03-22T05:38:18.244Z,99528.66
2023-03-22T05:40:45.609Z,99528.06
2023-03-22T05:43:12.373Z,99533.81
2023-03-22T05:45:39.054Z,99530.94
2023-03-22T05:48:06.266Z,99532.19
2023-03-22T05:50:33.762Z,99540.25
2023-03-22T05:53:00.800Z,99539.06
2023-03-22T05:55:27.748Z,99543.72
2023-03-22T05:57:54.829Z,99542.84
2023-03-22T06:00:23.730Z,99536.38
2023-03-22T06:02:52.928Z,99535.34
2023-03-22T06:05:21.077Z,99544.16
2023-03-22T06:07:47.822Z,99555.84
2023-03-22T06:10:15.540Z,99562.78
2023-03-22T06:12:42.311Z,99559.94
2023-03-22T06:15:09.781Z,99564.41
2023-03-22T06:17:36.801Z,99564.28
2023-03-22T06:20:10.319Z,99568.88
2023-03-22T06:22:37.917Z,99562.03
2023-03-22T06:25:06.746Z,99569.88
2023-03-22T06:27:33.635Z,99580.47
2023-03-22T06:30:00.393Z,99571.97
2023-03-22T06:32:27.701Z,99578.19
2023-03-22T06:34:54.806Z,99580.00
2023-03-22T06:37:22.119Z,99584.34
2023-03-22T06:39:48.992Z,99594.13
2023-03-22T06:42:15.784Z,99585.25
2023-03-22T06:44:44.544Z,99578.00
2023-03-22T06:47:11.747Z,99581.78
2023-03-22T06:49:38.830Z,99589.00
2023-03-22T06:52:05.801Z,99591.09
2023-03-22T06:54:32.575Z,99593.31
2023-03-22T06:56:59.386Z,99586.31
2023-03-22T06:59:26.310Z,99587.94
2023-03-22T07:01:53.074Z,99580.78
2023-03-22T07:04:20.222Z,99584.59
2023-03-22T07:06:47.101Z,99598.59
2023-03-22T07:09:13.958Z,99611.38
2023-03-22T07:11:42.068Z,99611.13
2023-03-22T07:14:09.012Z,99608.81
2023-03-22T07:16:35.853Z,99607.31
2023-03-22T07:19:03.499Z,99600.88
2023-03-22T07:21:30.419Z,99612.00
2023-03-22T07:23:58.215Z,99621.13
2023-03-22T07:26:26.452Z,99617.72
2023-03-22T07:28:53.434Z,99610.75
2023-03-22T07:31:20.338Z,99606.91
2023-03-22T07:33:48.239Z,99606.28
2023-03-22T07:36:15.461Z,99613.16
2023-03-22T07:38:42.261Z,99610.44
2023-03-22T07:41:09.022Z,99616.44
2023-03-22T07:43:50.843Z,99605.25
2023-03-22T07:46:19.971Z,99598.69
2023-03-22T07:48:46.851Z,99598.88
2023-03-22T07:51:15.372Z,99589.69
2023-03-22T07:53:42.131Z,99601.59
2023-03-22T07:56:09.186Z,99608.44
2023-03-22T07:58:36.516Z,99612.44
2023-03-22T08:01:05.519Z,99609.41
2023-03-22T08:03:32.324Z,99604.06
2023-03-22T08:06:03.811Z,99608.91
2023-03-22T08:08:30.682Z,99606.22
2023-03-22T08:10:57.412Z,99605.53
2023-03-22T08:13:24.266Z,99616.03
2023-03-22T08:15:50.951Z,99619.47
2023-03-22T08:18:18.264Z,99628.50
2023-03-22T08:20:45.719Z,99616.00
2023-03-22T08:23:16.084Z,99606.81
2023-03-22T08:25:43.336Z,99622.81
2023-03-22T08:28:10.657Z,99619.09
2023-03-22T08:30:38.325Z,99609.63
2023-03-22T08:33:06.543Z,99602.72
2023-03-22T08:35:33.792Z,99606.91
2023-03-22T08:38:01.277Z,99612.59
2023-03-22T08:40:28.085Z,99606.13
2023-03-22T08:42:55.144Z,99603.13
2023-03-22T08:45:21.930Z,99611.47
2023-03-22T08:47:48.744Z,99615.38
2023-03-22T08:50:15.529Z,99620.13
2023-03-22T08:52:42.810Z,99619.88
2023-03-22T08:55:10.161Z,99615.09
2023-03-22T08:57:38.839Z,99616.78
2023-03-22T09:00:06.857Z,99615.19
2023-03-22T09:02:33.808Z,99618.59
2023-03-22T09:05:00.498Z,99619.81
2023-03-22T09:07:27.747Z,99617.56
2023-03-22T09:09:54.507Z,99615.25
2023-03-22T09:12:21.265Z,99621.78
2023-03-22T09:14:50.082Z,99616.03
2023-03-22T09:17:20.163Z,99616.41
2023-03-22T09:19:49.561Z,99618.31
2023-03-22T09:22:16.457Z,99613.66
2023-03-22T09:24:43.187Z,99609.84
2023-03-22T09:27:10.038Z,99608.31
2023-03-22T09:29:36.719Z,99603.72
2023-03-22T09:32:03.574Z,99608.91
2023-03-22T09:34:30.454Z,99606.94
2023-03-22T09:36:58.642Z,99603.97
2023-03-22T09:39:25.591Z,99606.72
2023-03-22T09:41:55.474Z,99600.28
2023-03-22T09:44:26.370Z,99598.31
2023-03-22T09:46:55.533Z,99596.53
2023-03-22T09:49:52.565Z,99599.19
2023-03-22T09:52:20.154Z,99589.59
2023-03-22T09:54:47.376Z,99592.56
2023-03-22T09:57:43.607Z,99598.88
2023-03-22T10:00:24.815Z,99600.28
2023-03-22T10:03:10.764Z,99599.34
2023-03-22T10:06:01.700Z,99600.06
2023-03-22T10:08:34.406Z,99596.47
2023-03-22T10:11:01.434Z,99597.00
2023-03-22T10:13:30.992Z,99596.00
2023-03-22T10:16:00.379Z,99599.63
2023-03-22T10:18:48.949Z,99599.97
2023-03-22T10:21:16.366Z,99591.13
2023-03-22T10:23:46.648Z,99594.78
2023-03-22T10:26:34.864Z,99597.03
2023-03-22T10:29:14.034Z,99596.88
2023-03-22T10:31:43.739Z,99594.09
2023-03-22T10:34:22.006Z,99588.78
2023-03-22T10:36:50.502Z,99596.28
2023-03-22T10:39:38.645Z,99585.50
2023-03-22T10:42:17.321Z,99595.31
2023-03-22T10:45:06.224Z,99584.00
2023-03-22T10:47:40.571Z,99582.63
2023-03-22T10:50:28.544Z,99578.09
2023-03-22T10:53:01.759Z,99582.91
2023-03-22T10:55:28.837Z,99586.94
2023-03-22T10:58:10.429Z,99578.06
2023-03-22T11:00:40.247Z,99588.16
2023-03-22T11:03:08.798Z,99587.56
2023-03-22T11:05:35.663Z,99580.72
2023-03-22T11:08:03.156Z,99579.19
2023-03-22T11:10:33.531Z,99573.31
2023-03-22T11:13:09.672Z,99569.00
2023-03-22T11:15:40.002Z,99562.66
2023-03-22T11:18:12.596Z,99560.88
2023-03-22T11:20:42.172Z,99555.06
2023-03-22T11:23:13.361Z,99552.97
2023-03-22T11:25:46.030Z,99560.00
2023-03-22T11:28:27.969Z,99558.78
2023-03-22T11:31:09.719Z,99552.31
2023-03-22T11:33:37.262Z,99547.31
2023-03-22T11:36:14.968Z,99537.91
2023-03-22T11:38:48.267Z,99544.34
2023-03-22T11:41:31.998Z,99550.41
2023-03-22T11:44:12.845Z,99537.38
2023-03-22T11:46:40.438Z,99540.31
2023-03-22T11:49:09.508Z,99541.03
2023-03-22T11:51:38.817Z,99530.34
2023-03-22T11:54:25.965Z,99530.41
2023-03-22T11:56:58.462Z,99536.88
2023-03-22T11:59:30.795Z,99533.38
2023-03-22T12:01:59.000Z,99527.81
2023-03-22T12:04:30.373Z,99528.53
2023-03-22T12:06:59.948Z,99522.44
2023-03-22T12:09:39.383Z,99533.94
2023-03-22T12:12:13.443Z,99532.06
2023-03-22T12:14:48.734Z,99535.63
2023-03-22T12:17:41.412Z,99541.03
2023-03-22T12:20:18.433Z,99531.34
2023-03-22T12:22:52.650Z,99527.44
2023-03-22T12:25:22.635Z,99527.06
2023-03-22T12:27:58.395Z,99527.00
2023-03-22T12:30:31.334Z,99529.41
2023-03-22T12:33:29.069Z,99524.56
2023-03-22T12:35:57.927Z,99528.13
2023-03-22T12:38:57.400Z,99527.69
2023-03-22T12:41:39.010Z,99525.75
2023-03-22T12:44:17.220Z,99525.88
2023-03-22T12:46:54.704Z,99518.91
2023-03-22T12:49:42.372Z,99518.34
2023-03-22T12:52:16.145Z,99513.34
2023-03-22T12:54:43.577Z,99518.56
2023-03-22T12:57:11.351Z,99511.31
2023-03-22T12:59:38.118Z,99510.09
2023-03-22T13:02:17.338Z,99508.84
2023-03-22T13:04:43.994Z,99503.84
2023-03-22T13:07:13.787Z,99497.69
2023-03-22T13:09:50.974Z,99490.88
2023-03-22T13:12:17.611Z,99492.91
2023-03-22T13:14:53.167Z,99492.72
2023-03-22T13:17:23.708Z,99494.13
2023-03-22T13:20:07.587Z,99487.75
2023-03-22T13:22:41.722Z,99482.03
2023-03-22T13:25:16.721Z,99480.81
2023-03-22T13:27:45.488Z,99477.69
2023-03-22T13:30:21.799Z,99482.19
2023-03-22T13:32:54.513Z,99483.41
2023-03-22T13:35:37.937Z,99471.91
2023-03-22T13:38:29.795Z,99475.06
2023-03-22T13:40:59.465Z,99464.84
2023-03-22T13:43:32.668Z,99466.00
2023-03-22T13:46:17.840Z,99464.41
2023-03-22T13:48:44.799Z,99469.47
2023-03-22T13:51:15.693Z,99462.16
2023-03-22T13:54:07.041Z,99458.44
2023-03-22T13:56:43.114Z,99457.44
2023-03-22T13:59:25.351Z,99460.84
2023-03-22T14:02:15.648Z,99461.16
2023-03-22T14:05:17.673Z,99457.56
2023-03-22T14:07:51.239Z,99456.81
2023-03-22T14:10:28.575Z,99450.53
2023-03-22T14:13:02.664Z,99446.81
2023-03-22T14:15:35.170Z,99446.06
2023-03-22T14:18:25.841Z,99446.84
2023-03-22T14:20:55.758Z,99448.75
